Terminal Aerodrome Forecast
Issued by NWS

Home | Current Version | Previous Version | Text Only | Print | Product List | Glossary On
Versions: 1 2 3 4 5 6 7 8 9 10 11 12 13 14 15 16 17 18
000
FTUS46 KMFR 251220 AAA
TAFLMT
TAF AMD
KLMT 251220Z 2512/2612 00000KT 3/4SM BR OVC002
     FM251400 VRB03KT P6SM SKC
     FM251900 27006KT P6SM SKC
     FM252200 30010KT P6SM SCT050 BKN120
     FM260500 25005KT P6SM SKC=

USA.gov is the U.S. government's official web portal to all federal, state and local government web resources and services.